createdAt,value
2022-12-14T00:00:25.825Z,20.73
2022-12-14T00:03:30.253Z,20.95
2022-12-14T00:06:34.688Z,22.75
2022-12-14T00:09:39.260Z,19.90
2022-12-14T00:12:43.431Z,21.42
2022-12-14T00:15:47.967Z,16.42
2022-12-14T00:18:54.776Z,17.23
2022-12-14T00:21:59.437Z,17.77
2022-12-14T00:25:04.999Z,16.30
2022-12-14T00:28:09.819Z,17.05
2022-12-14T00:31:15.189Z,17.80
2022-12-14T00:34:20.148Z,20.25
2022-12-14T00:37:25.034Z,16.23
2022-12-14T00:40:29.967Z,21.45
2022-12-14T00:43:35.069Z,19.15
2022-12-14T00:46:39.548Z,20.00
2022-12-14T00:49:44.622Z,18.73
2022-12-14T00:52:53.253Z,20.70
2022-12-14T00:56:05.645Z,22.75
2022-12-14T00:59:10.127Z,16.45
2022-12-14T01:02:15.182Z,21.05
2022-12-14T01:05:19.937Z,18.65
2022-12-14T01:08:24.866Z,20.73
2022-12-14T01:11:29.798Z,22.35
2022-12-14T01:14:34.781Z,25.00
2022-12-14T01:17:40.017Z,20.45
2022-12-14T01:20:44.805Z,20.77
2022-12-14T01:23:54.055Z,20.15
2022-12-14T01:26:58.784Z,19.00
2022-12-14T01:30:04.960Z,18.48
2022-12-14T01:33:09.859Z,19.92
2022-12-14T01:36:21.469Z,21.10
2022-12-14T01:39:26.275Z,22.35
2022-12-14T01:42:31.181Z,19.65
2022-12-14T01:45:35.922Z,19.83
2022-12-14T01:48:40.933Z,23.15
2022-12-14T01:51:56.687Z,20.10
2022-12-14T01:55:16.066Z,15.50
2022-12-14T01:58:28.889Z,18.42
2022-12-14T02:01:34.586Z,18.73
2022-12-14T02:04:55.854Z,18.45
2022-12-14T02:08:00.379Z,19.67
2022-12-14T02:11:05.175Z,18.30
2022-12-14T02:14:12.635Z,17.25
2022-12-14T02:17:17.448Z,17.48
2022-12-14T02:20:27.299Z,15.98
2022-12-14T02:24:03.741Z,17.42
2022-12-14T02:27:26.695Z,20.75
2022-12-14T02:30:37.209Z,16.15
2022-12-14T02:33:47.970Z,20.48
2022-12-14T02:37:30.647Z,18.23
2022-12-14T02:41:19.010Z,17.38
2022-12-14T02:44:30.700Z,17.42
2022-12-14T02:48:19.721Z,16.55
2022-12-14T02:52:11.255Z,17.35
2022-12-14T02:55:23.502Z,18.77
2022-12-14T02:58:43.497Z,19.23
2022-12-14T03:01:51.217Z,16.52
2022-12-14T03:04:56.575Z,17.70
2022-12-14T03:08:11.554Z,23.92
2022-12-14T03:11:23.625Z,18.27
2022-12-14T03:14:54.710Z,16.73
2022-12-14T03:18:02.299Z,18.58
2022-12-14T03:21:11.811Z,16.45
2022-12-14T03:24:24.136Z,18.17
2022-12-14T03:27:35.818Z,15.73
2022-12-14T03:31:00.009Z,13.10
2022-12-14T03:34:13.378Z,17.13
2022-12-14T03:37:49.963Z,14.27
2022-12-14T03:41:20.460Z,13.32
2022-12-14T03:44:33.939Z,14.68
2022-12-14T03:48:04.552Z,12.40
2022-12-14T03:51:44.605Z,15.68
2022-12-14T03:55:43.542Z,13.73
2022-12-14T03:59:47.520Z,15.13
2022-12-14T04:03:10.587Z,12.02
2022-12-14T04:06:21.014Z,13.00
2022-12-14T04:09:58.548Z,14.73
2022-12-14T04:13:31.559Z,12.82
2022-12-14T04:17:01.209Z,12.60
2022-12-14T04:20:10.941Z,13.95
2022-12-14T04:23:43.178Z,12.13
2022-12-14T04:27:01.864Z,12.63
2022-12-14T04:30:10.069Z,12.25
2022-12-14T04:33:35.269Z,10.48
2022-12-14T04:36:51.867Z,11.68
2022-12-14T04:40:05.463Z,13.35
2022-12-14T04:43:16.534Z,12.43
2022-12-14T04:46:35.180Z,9.75
2022-12-14T04:50:05.749Z,12.98
2022-12-14T04:53:24.627Z,10.90
2022-12-14T04:56:44.731Z,11.65
2022-12-14T04:59:50.517Z,11.88
2022-12-14T05:03:23.710Z,11.07
2022-12-14T05:07:13.577Z,11.27
2022-12-14T05:11:30.244Z,13.52
2022-12-14T05:15:03.488Z,10.55
2022-12-14T05:18:09.135Z,15.77
2022-12-14T05:21:32.891Z,13.10
2022-12-14T05:24:37.708Z,11.13
2022-12-14T05:27:42.642Z,12.73
2022-12-14T05:30:49.204Z,13.10
2022-12-14T05:33:54.153Z,12.23
2022-12-14T05:36:58.925Z,11.95
2022-12-14T05:40:04.493Z,12.20
2022-12-14T05:43:12.263Z,11.05
2022-12-14T05:46:16.899Z,11.52
2022-12-14T05:49:21.348Z,14.77
2022-12-14T05:52:27.184Z,12.60
2022-12-14T05:55:31.768Z,12.52
2022-12-14T05:58:37.081Z,13.55
2022-12-14T06:01:44.008Z,11.57
2022-12-14T06:04:48.671Z,11.85
2022-12-14T06:07:54.293Z,10.23
2022-12-14T06:11:20.771Z,9.60
2022-12-14T06:14:25.444Z,12.38
2022-12-14T06:17:29.763Z,9.93
2022-12-14T06:20:34.135Z,9.77
2022-12-14T06:23:39.288Z,11.57
2022-12-14T06:26:43.743Z,9.70
2022-12-14T06:29:48.329Z,9.25
2022-12-14T06:32:52.785Z,9.77
2022-12-14T06:35:57.303Z,10.50
2022-12-14T06:39:14.994Z,8.98
2022-12-14T06:42:19.543Z,9.52
2022-12-14T06:45:24.225Z,10.98
2022-12-14T06:48:29.902Z,7.95
2022-12-14T06:51:44.427Z,10.68
2022-12-14T06:54:49.092Z,9.07
2022-12-14T06:57:55.474Z,8.38
2022-12-14T07:01:13.548Z,8.35
2022-12-14T07:04:21.241Z,9.00
2022-12-14T07:07:26.496Z,11.27
2022-12-14T07:10:31.469Z,10.93
2022-12-14T07:13:37.361Z,11.75
2022-12-14T07:16:46.513Z,11.45
2022-12-14T07:19:53.350Z,11.73
2022-12-14T07:22:58.275Z,11.88
2022-12-14T07:26:09.776Z,15.45
2022-12-14T07:29:16.859Z,12.38
2022-12-14T07:32:21.978Z,16.70
2022-12-14T07:35:26.778Z,13.57
2022-12-14T07:38:32.151Z,14.45
2022-12-14T07:41:36.982Z,12.50
2022-12-14T07:44:41.802Z,13.40
2022-12-14T07:47:46.399Z,15.70
2022-12-14T07:50:51.075Z,14.50
2022-12-14T07:53:56.246Z,12.52
2022-12-14T07:57:01.702Z,14.88
2022-12-14T08:00:07.075Z,16.30
2022-12-14T08:03:15.864Z,14.25
2022-12-14T08:06:22.659Z,15.07
2022-12-14T08:09:27.390Z,14.27
2022-12-14T08:12:32.158Z,14.23
2022-12-14T08:15:39.848Z,16.00
2022-12-14T08:18:45.037Z,12.75
2022-12-14T08:21:49.937Z,14.32
2022-12-14T08:24:54.788Z,18.02
2022-12-14T08:27:59.851Z,14.15
2022-12-14T08:31:11.048Z,14.55
2022-12-14T08:34:21.966Z,15.82
2022-12-14T08:37:26.706Z,17.00
2022-12-14T08:40:35.349Z,19.65
2022-12-14T08:43:40.653Z,21.92
2022-12-14T08:46:45.326Z,17.10
2022-12-14T08:49:50.129Z,19.05
2022-12-14T08:52:55.678Z,18.95
2022-12-14T08:56:13.902Z,16.13
2022-12-14T08:59:37.031Z,20.17
2022-12-14T09:02:44.193Z,18.55
2022-12-14T09:05:48.567Z,19.50
2022-12-14T09:08:54.128Z,19.52
2022-12-14T09:12:03.321Z,18.73
2022-12-14T09:15:08.929Z,19.38
2022-12-14T09:18:13.362Z,18.88
2022-12-14T09:21:18.436Z,15.63
2022-12-14T09:24:24.547Z,19.25
2022-12-14T09:27:29.297Z,19.23
2022-12-14T09:30:33.769Z,19.20
2022-12-14T09:33:38.582Z,17.23
2022-12-14T09:36:43.009Z,18.17
2022-12-14T09:39:47.453Z,17.67
2022-12-14T09:43:05.984Z,19.73
2022-12-14T09:46:32.714Z,17.02
2022-12-14T09:50:09.453Z,16.92
2022-12-14T09:53:16.186Z,16.00
2022-12-14T09:56:21.177Z,16.38
2022-12-14T09:59:28.655Z,17.88
2022-12-14T10:03:14.863Z,15.98
2022-12-14T10:06:37.620Z,18.40
2022-12-14T10:10:22.673Z,16.17
2022-12-14T10:14:01.202Z,15.05
2022-12-14T10:17:14.567Z,15.82
2022-12-14T10:20:39.351Z,13.32
2022-12-14T10:24:21.799Z,15.57
2022-12-14T10:27:47.651Z,12.70
2022-12-14T10:30:59.445Z,15.80
2022-12-14T10:34:22.472Z,13.63
2022-12-14T10:37:42.883Z,13.95
2022-12-14T10:40:52.476Z,18.20
2022-12-14T10:44:04.544Z,13.35
2022-12-14T10:47:34.714Z,14.38
2022-12-14T10:51:01.755Z,16.95
2022-12-14T10:54:21.087Z,14.48
2022-12-14T10:57:28.042Z,14.82
2022-12-14T11:00:32.695Z,14.63
2022-12-14T11:03:37.891Z,14.60
2022-12-14T11:06:43.030Z,14.65
2022-12-14T11:09:47.896Z,14.65
2022-12-14T11:13:13.140Z,17.27
2022-12-14T11:16:38.698Z,20.67
2022-12-14T11:19:43.754Z,18.45
2022-12-14T11:23:36.132Z,16.65
2022-12-14T11:26:43.088Z,16.45
2022-12-14T11:29:50.036Z,15.50
2022-12-14T11:32:55.328Z,16.98
2022-12-14T11:36:00.364Z,15.98
2022-12-14T11:39:15.615Z,17.25
2022-12-14T11:42:22.089Z,17.45
2022-12-14T11:45:31.479Z,16.30
2022-12-14T11:48:50.401Z,16.40
2022-12-14T11:52:05.417Z,16.95
2022-12-14T11:55:23.007Z,19.13
2022-12-14T11:58:46.364Z,15.57
2022-12-14T12:01:51.634Z,16.30
2022-12-14T12:05:02.692Z,19.25
2022-12-14T12:08:19.569Z,17.38
2022-12-14T12:11:29.448Z,18.60
2022-12-14T12:14:37.272Z,18.42
2022-12-14T12:17:45.858Z,19.92
2022-12-14T12:21:09.041Z,18.25
2022-12-14T12:24:38.762Z,18.75
2022-12-14T12:28:02.572Z,15.32
2022-12-14T12:31:15.190Z,18.33
2022-12-14T12:34:29.380Z,16.55
2022-12-14T12:37:45.364Z,20.92
2022-12-14T12:41:05.036Z,17.05
2022-12-14T12:44:39.960Z,19.27
2022-12-14T12:47:52.311Z,19.27
2022-12-14T12:51:12.639Z,17.30
2022-12-14T12:55:10.364Z,18.67
2022-12-14T12:58:30.834Z,18.20
2022-12-14T13:01:40.642Z,17.27
2022-12-14T13:04:52.433Z,21.88
2022-12-14T13:08:22.219Z,17.17
2022-12-14T13:11:35.855Z,15.75
2022-12-14T13:14:49.975Z,16.17
2022-12-14T13:18:56.079Z,16.38
2022-12-14T13:21:55.108Z,16.13
2022-12-14T13:25:46.239Z,14.52
2022-12-14T13:29:16.899Z,15.70
2022-12-14T13:32:42.585Z,16.17
2022-12-14T13:36:34.388Z,14.60
2022-12-14T13:40:18.876Z,12.32
2022-12-14T13:43:54.894Z,12.60
2022-12-14T13:47:06.341Z,10.55
2022-12-14T13:50:49.829Z,9.25
2022-12-14T13:54:07.610Z,11.48
2022-12-14T13:57:21.367Z,10.25
2022-12-14T14:00:45.593Z,11.43
2022-12-14T14:07:49.611Z,11.18
2022-12-14T14:11:20.597Z,9.32
2022-12-14T14:14:46.124Z,10.20
2022-12-14T14:17:54.968Z,8.73
2022-12-14T14:21:58.926Z,9.75
2022-12-14T14:28:31.293Z,9.45
2022-12-14T14:32:04.768Z,8.85
2022-12-14T14:35:34.566Z,12.63
2022-12-14T14:38:39.154Z,9.77
2022-12-14T14:41:47.096Z,12.45
2022-12-14T14:45:00.487Z,13.93
2022-12-14T14:48:29.570Z,11.65
2022-12-14T14:51:36.861Z,11.13
2022-12-14T14:55:27.854Z,12.32
2022-12-14T14:58:32.207Z,12.65
2022-12-14T15:01:37.695Z,11.65
2022-12-14T15:04:51.638Z,13.70
2022-12-14T15:07:56.910Z,13.07
2022-12-14T15:11:18.309Z,15.68
2022-12-14T15:14:43.369Z,14.40
2022-12-14T15:17:51.307Z,13.95
2022-12-14T15:21:07.888Z,12.23
2022-12-14T15:24:14.469Z,13.57
2022-12-14T15:27:32.082Z,16.27
2022-12-14T15:30:36.657Z,16.55
2022-12-14T15:33:43.403Z,16.48
2022-12-14T15:36:49.237Z,18.48
2022-12-14T15:40:16.517Z,16.20
2022-12-14T15:43:23.406Z,18.25
2022-12-14T15:46:40.282Z,15.48
2022-12-14T15:49:46.436Z,12.75
2022-12-14T15:52:55.601Z,12.73
2022-12-14T15:56:11.810Z,15.63
2022-12-14T15:59:27.763Z,15.80
2022-12-14T16:02:33.806Z,13.85
2022-12-14T16:05:38.512Z,17.00
2022-12-14T16:09:06.341Z,13.73
2022-12-14T16:12:45.531Z,14.63
2022-12-14T16:15:52.074Z,14.35
2022-12-14T16:19:13.893Z,13.88
2022-12-14T16:22:24.195Z,12.82
2022-12-14T16:25:31.489Z,13.90
2022-12-14T16:28:37.507Z,12.63
2022-12-14T16:31:42.623Z,14.00
2022-12-14T16:34:59.871Z,15.57
2022-12-14T16:38:17.984Z,15.32
2022-12-14T16:41:41.549Z,14.93
2022-12-14T16:44:47.288Z,14.57
2022-12-14T16:48:15.418Z,12.82
2022-12-14T16:51:33.004Z,16.80
2022-12-14T16:54:43.078Z,14.00
2022-12-14T16:57:48.079Z,16.27
2022-12-14T17:01:06.219Z,16.02
2022-12-14T17:04:14.149Z,13.73
2022-12-14T17:07:25.021Z,16.88
2022-12-14T17:10:32.808Z,14.32
2022-12-14T17:13:37.762Z,13.75
2022-12-14T17:16:44.914Z,12.82
2022-12-14T17:19:49.677Z,16.17
2022-12-14T17:22:58.698Z,13.50
2022-12-14T17:26:03.979Z,18.83
2022-12-14T17:29:22.807Z,16.40
2022-12-14T17:32:32.462Z,15.52
2022-12-14T17:35:37.307Z,14.52
2022-12-14T17:38:42.096Z,14.32
2022-12-14T17:41:48.066Z,15.32
2022-12-14T17:44:56.969Z,15.88
2022-12-14T17:48:01.785Z,15.30
2022-12-14T17:51:07.923Z,16.55
2022-12-14T17:54:19.244Z,18.65
2022-12-14T17:57:26.030Z,15.63
2022-12-14T18:00:50.415Z,17.33
2022-12-14T18:03:55.341Z,16.13
2022-12-14T18:07:00.327Z,16.35
2022-12-14T18:10:05.948Z,17.95
2022-12-14T18:13:12.379Z,14.95
2022-12-14T18:16:20.120Z,14.45
2022-12-14T18:19:25.030Z,14.60
2022-12-14T18:22:29.907Z,16.70
2022-12-14T18:25:56.466Z,14.05
2022-12-14T18:29:01.753Z,13.68
2022-12-14T18:32:06.251Z,11.73
2022-12-14T18:35:28.466Z,11.35
2022-12-14T18:38:32.949Z,12.32
2022-12-14T18:41:37.965Z,12.88
2022-12-14T18:44:43.010Z,15.32
2022-12-14T18:47:48.744Z,16.58
2022-12-14T18:50:55.358Z,15.00
2022-12-14T18:54:00.655Z,15.43
2022-12-14T18:57:05.233Z,12.43
2022-12-14T19:00:13.128Z,12.98
2022-12-14T19:03:18.101Z,13.40
2022-12-14T19:09:49.947Z,13.10
2022-12-14T19:12:55.899Z,14.15
2022-12-14T19:16:00.985Z,13.43
2022-12-14T19:19:06.257Z,15.45
2022-12-14T19:22:11.318Z,15.25
2022-12-14T19:25:18.065Z,12.23
2022-12-14T19:28:37.887Z,12.18
2022-12-14T19:31:42.623Z,12.02
2022-12-14T19:34:47.732Z,11.95
2022-12-14T19:37:53.233Z,12.88
2022-12-14T19:41:05.985Z,13.35
2022-12-14T19:44:10.813Z,14.68
2022-12-14T19:47:15.913Z,12.73
2022-12-14T19:50:20.872Z,12.43
2022-12-14T19:53:25.716Z,13.50
2022-12-14T19:56:30.585Z,14.52
2022-12-14T19:59:35.519Z,13.00
2022-12-14T20:02:40.744Z,11.85
2022-12-14T20:06:12.001Z,12.48
2022-12-14T20:09:17.985Z,10.93
2022-12-14T20:12:22.781Z,12.43
2022-12-14T20:15:27.653Z,14.38
2022-12-14T20:18:32.707Z,11.43
2022-12-14T20:21:38.601Z,12.85
2022-12-14T20:24:47.039Z,12.15
2022-12-14T20:27:52.795Z,10.25
2022-12-14T20:30:57.939Z,13.90
2022-12-14T20:34:05.239Z,12.88
2022-12-14T20:37:09.939Z,12.40
2022-12-14T20:40:14.795Z,14.13
2022-12-14T20:43:20.181Z,13.23
2022-12-14T20:46:31.406Z,13.05
2022-12-14T20:49:38.777Z,12.23
2022-12-14T20:52:43.537Z,12.00
2022-12-14T20:55:48.613Z,12.32
2022-12-14T20:58:53.524Z,14.45
2022-12-14T21:01:58.592Z,11.30
2022-12-14T21:05:03.743Z,13.68
2022-12-14T21:08:09.317Z,12.85
2022-12-14T21:11:33.345Z,12.80
2022-12-14T21:14:44.919Z,13.20
2022-12-14T21:17:49.878Z,12.38
2022-12-14T21:20:54.754Z,12.30
2022-12-14T21:23:59.692Z,11.82
2022-12-14T21:27:05.030Z,16.35
2022-12-14T21:30:11.833Z,12.18
2022-12-14T21:33:16.804Z,12.77
2022-12-14T21:36:21.191Z,11.90
2022-12-14T21:39:26.212Z,12.15
2022-12-14T21:42:31.211Z,10.57
2022-12-14T21:45:36.007Z,13.27
2022-12-14T21:48:40.816Z,12.77
2022-12-14T21:51:47.068Z,14.57
2022-12-14T21:54:54.714Z,13.15
2022-12-14T21:58:17.674Z,11.55
2022-12-14T22:01:22.508Z,10.95
2022-12-14T22:04:31.050Z,12.60
2022-12-14T22:07:38.671Z,12.52
2022-12-14T22:10:43.546Z,12.98
2022-12-14T22:13:48.211Z,12.32
2022-12-14T22:16:53.747Z,13.23
2022-12-14T22:19:59.431Z,13.40
2022-12-14T22:23:04.281Z,10.52
2022-12-14T22:26:09.247Z,11.65
2022-12-14T22:29:16.987Z,11.75
2022-12-14T22:32:21.525Z,10.52
2022-12-14T22:35:26.657Z,12.43
2022-12-14T22:38:32.647Z,11.05
2022-12-14T22:41:37.863Z,13.63
2022-12-14T22:44:42.566Z,15.27
2022-12-14T22:47:47.473Z,23.98
2022-12-14T22:50:52.405Z,24.40
2022-12-14T22:53:57.761Z,21.77
2022-12-14T22:57:13.729Z,18.42
2022-12-14T23:00:18.335Z,16.38
2022-12-14T23:03:24.739Z,17.00
2022-12-14T23:06:30.089Z,16.75
2022-12-14T23:09:53.191Z,14.98
2022-12-14T23:13:16.059Z,13.87
2022-12-14T23:16:39.207Z,16.67
2022-12-14T23:20:05.068Z,15.07
2022-12-14T23:23:29.055Z,11.85
2022-12-14T23:30:15.684Z,10.48
2022-12-14T23:33:38.501Z,14.27
2022-12-14T23:37:01.423Z,12.95
2022-12-14T23:40:25.497Z,14.27
2022-12-14T23:43:48.527Z,13.65
2022-12-14T23:47:11.363Z,13.90
2022-12-14T23:50:34.252Z,15.65
2022-12-14T23:53:57.106Z,13.80
2022-12-14T23:57:22.724Z,13.75
